Terminal Aerodrome Forecast
Issued by NWS

Home | Current Version | Previous Version | Text Only | Print | Product List | Glossary On
Versions: 1 2 3 4 5 6 7 8 9 10 11 12 13 14 15 16 17 18 19 20 21 22 23 24 25 26 27 28 29
000
FTUS41 KBUF 030326 AAB
TAFIAG
TAF AMD
KIAG 030326Z 0303/0324 19013KT P6SM VCTS SCT050CB BKN250
      WS020/22045KT
      TEMPO 0303/0305 VRB20G40KT 2SM +TSRA BKN025CB
     FM030500 21015KT P6SM VCTS OVC035CB WS020/22045KT
     FM030700 22014KT P6SM VCSH BKN050
     FM031100 22015KT P6SM OVC050
     FM031700 24012KT 6SM -SHRA VCTS BKN035CB
     FM032000 22014KT P6SM VCSH BKN050=

USA.gov is the U.S. government's official web portal to all federal, state and local government web resources and services.